Modern Express — H9DG — position and weather

sailwx.info

Track history (hours):
 
Tides and Currents Weather Stations Pressure Air Temp Water Temp Dewpoint Dewpoint Depression Visibility Wind Speed Wind Dir Waves Ship Positions

Modern Express

Last reported at 2016-Jan-25 17:29 UTC. Time now 2016-Jun-28 22:32 UTC.
Position N 41°35' W 010°31'.
Warning: this ship's position is months out of date.

Length 164 m; beam 28 m.

Type: Cargo ship. MMSI: 356187000.

Date/timePositionNaut miles runAvg speedWind from/ knotsBaromVisibWave heightAir tempDewpointWater temp
2016-Jan-25 17:29N 41°35' W 010°31'7015.9
2016-Jan-25 13:07N 40°26' W 010°32'1015.9
2016-Jan-25 12:28N 40°15' W 010°32'1615.5
2016-Jan-25 11:24N 39°59' W 010°33'1315.2
2016-Jan-25 10:33N 39°46' W 010°33'1816.6
2016-Jan-25 09:28N 39°28' W 010°34'1816.0
2016-Jan-25 08:22N 39°10' W 010°35'1315.5
2016-Jan-25 07:31N 38°57' W 010°36'1716.7
2016-Jan-25 06:30N 38°40' W 010°37'1816.9
2016-Jan-25 05:28N 38°23' W 010°39'8316.4
2016-Jan-25 00:25N 36°60' W 010°45'1616.4
2016-Jan-24 23:28N 36°44' W 010°47'1616.7
2016-Jan-24 22:31N 36°29' W 010°48'1716.3
2016-Jan-24 21:28N 36°12' W 010°53'29716.6
2016-Jan-24 03:33N 31°24' W 012°23'19916.5
2016-Jan-23 15:33N 28°16' W 013°37'1616.4
2016-Jan-23 14:33N 28°02' W 013°45'1716.6
2016-Jan-23 13:33N 27°47' W 013°54'1716.5
2016-Jan-23 12:33N 27°33' W 014°03'1616.4
2016-Jan-23 11:33N 27°19' W 014°12'1716.6
2016-Jan-23 10:33N 27°04' W 014°22'  
Track history (hours):
 
Tides and Currents Weather Stations Pressure Air Temp Water Temp Dewpoint Dewpoint Depression Visibility Wind Speed Wind Dir Waves Ship Positions

Modern Express

Last reported at 2016-Jan-25 17:29 UTC. Time now 2016-Jun-28 22:32 UTC.
Position N 41°35' W 010°31'.
Warning: this ship's position is months out of date.

Length 164 m; beam 28 m.

Type: Cargo ship. MMSI: 356187000.

Date/timePositionNaut miles runAvg speedWind from/ knotsBaromVisibWave heightAir tempDewpointWater temp
2016-Jan-25 17:29N 41°35' W 010°31'7015.9
2016-Jan-25 13:07N 40°26' W 010°32'1015.9
2016-Jan-25 12:28N 40°15' W 010°32'1615.5
2016-Jan-25 11:24N 39°59' W 010°33'1315.2
2016-Jan-25 10:33N 39°46' W 010°33'1816.6
2016-Jan-25 09:28N 39°28' W 010°34'1816.0
2016-Jan-25 08:22N 39°10' W 010°35'1315.5
2016-Jan-25 07:31N 38°57' W 010°36'1716.7
2016-Jan-25 06:30N 38°40' W 010°37'1816.9
2016-Jan-25 05:28N 38°23' W 010°39'8316.4
2016-Jan-25 00:25N 36°60' W 010°45'1616.4
2016-Jan-24 23:28N 36°44' W 010°47'1616.7
2016-Jan-24 22:31N 36°29' W 010°48'1716.3
2016-Jan-24 21:28N 36°12' W 010°53'29716.6
2016-Jan-24 03:33N 31°24' W 012°23'19916.5
2016-Jan-23 15:33N 28°16' W 013°37'1616.4
2016-Jan-23 14:33N 28°02' W 013°45'1716.6
2016-Jan-23 13:33N 27°47' W 013°54'1716.5
2016-Jan-23 12:33N 27°33' W 014°03'1616.4
2016-Jan-23 11:33N 27°19' W 014°12'1716.6
2016-Jan-23 10:33N 27°04' W 014°22'  

Dump ship's entire track history